Terminal Aerodrome Forecast
Issued by NWS Jackson, MS

Home | Current Version | Previous Version | Text Only | Print | Product List | Glossary On
Versions: 1 2 3 4 5 6 7 8 9 10 11 12 13 14 15 16 17 18 19 20 21
000
FTUS44 KJAN 290550 RRA
TAFHBG
TAF
KHBG 290550Z 2906/3006 14003KT P6SM SCT015 SCT025
     FM290900 15003KT 5SM BR BKN009 OVC020
     FM291100 15003KT 1SM BR BKN004
     FM291330 16005KT 5SM BR BKN009 BKN025
     FM291430 16008KT P6SM BKN015 BKN030
     FM291600 17012G20KT P6SM SCT020 BKN030
     FM300100 16007KT P6SM SCT025 BKN050=

USA.gov is the U.S. government's official web portal to all federal, state and local government web resources and services.